sensor_id;sensor_type;location;lat;lon;timestamp;P1;durP1;ratioP1;P2;durP2;ratioP2
49223;SDS011;35050;51.316;5.994;2022-12-07T00:01:44;7.85;;;5.30;;
49223;SDS011;35050;51.316;5.994;2022-12-07T00:04:11;5.43;;;4.57;;
49223;SDS011;35050;51.316;5.994;2022-12-07T00:06:42;7.65;;;5.00;;
49223;SDS011;35050;51.316;5.994;2022-12-07T00:09:10;5.80;;;4.45;;
49223;SDS011;35050;51.316;5.994;2022-12-07T00:11:38;5.68;;;4.22;;
49223;SDS011;35050;51.316;5.994;2022-12-07T00:14:05;4.57;;;3.35;;
49223;SDS011;35050;51.316;5.994;2022-12-07T00:16:33;5.55;;;3.70;;
49223;SDS011;35050;51.316;5.994;2022-12-07T00:18:59;6.55;;;4.57;;
49223;SDS011;35050;51.316;5.994;2022-12-07T00:21:28;5.50;;;4.50;;
49223;SDS011;35050;51.316;5.994;2022-12-07T00:23:58;6.57;;;4.95;;
49223;SDS011;35050;51.316;5.994;2022-12-07T00:26:26;7.97;;;5.55;;
49223;SDS011;35050;51.316;5.994;2022-12-07T00:28:57;6.85;;;5.40;;
49223;SDS011;35050;51.316;5.994;2022-12-07T00:31:27;9.38;;;5.78;;
49223;SDS011;35050;51.316;5.994;2022-12-07T00:33:55;9.40;;;5.95;;
49223;SDS011;35050;51.316;5.994;2022-12-07T00:36:22;6.47;;;4.97;;
49223;SDS011;35050;51.316;5.994;2022-12-07T00:38:49;6.88;;;5.47;;
49223;SDS011;35050;51.316;5.994;2022-12-07T00:41:15;5.90;;;5.05;;
49223;SDS011;35050;51.316;5.994;2022-12-07T00:43:46;6.82;;;5.25;;
49223;SDS011;35050;51.316;5.994;2022-12-07T00:46:13;7.40;;;5.50;;
49223;SDS011;35050;51.316;5.994;2022-12-07T00:48:40;6.57;;;5.75;;
49223;SDS011;35050;51.316;5.994;2022-12-07T00:51:05;5.85;;;5.00;;
49223;SDS011;35050;51.316;5.994;2022-12-07T00:53:35;6.82;;;5.30;;
49223;SDS011;35050;51.316;5.994;2022-12-07T00:56:04;8.75;;;5.80;;
49223;SDS011;35050;51.316;5.994;2022-12-07T00:58:37;7.38;;;5.70;;
49223;SDS011;35050;51.316;5.994;2022-12-07T01:01:03;8.70;;;5.78;;
49223;SDS011;35050;51.316;5.994;2022-12-07T01:03:30;6.28;;;5.10;;
49223;SDS011;35050;51.316;5.994;2022-12-07T01:05:56;6.00;;;5.10;;
49223;SDS011;35050;51.316;5.994;2022-12-07T01:08:22;7.53;;;5.45;;
49223;SDS011;35050;51.316;5.994;2022-12-07T01:10:56;5.65;;;4.72;;
49223;SDS011;35050;51.316;5.994;2022-12-07T01:13:29;6.15;;;4.45;;
49223;SDS011;35050;51.316;5.994;2022-12-07T01:15:58;7.07;;;5.07;;
49223;SDS011;35050;51.316;5.994;2022-12-07T01:18:26;5.55;;;4.40;;
49223;SDS011;35050;51.316;5.994;2022-12-07T01:23:41;5.40;;;4.25;;
49223;SDS011;35050;51.316;5.994;2022-12-07T01:26:10;5.60;;;4.85;;
49223;SDS011;35050;51.316;5.994;2022-12-07T01:28:38;5.57;;;4.90;;
49223;SDS011;35050;51.316;5.994;2022-12-07T01:31:05;7.88;;;5.22;;
49223;SDS011;35050;51.316;5.994;2022-12-07T01:33:33;6.80;;;5.03;;
49223;SDS011;35050;51.316;5.994;2022-12-07T01:36:04;5.90;;;4.50;;
49223;SDS011;35050;51.316;5.994;2022-12-07T01:38:37;7.90;;;5.00;;
49223;SDS011;35050;51.316;5.994;2022-12-07T01:41:03;5.93;;;4.70;;
49223;SDS011;35050;51.316;5.994;2022-12-07T01:43:30;7.07;;;5.03;;
49223;SDS011;35050;51.316;5.994;2022-12-07T01:45:57;5.00;;;4.13;;
49223;SDS011;35050;51.316;5.994;2022-12-07T01:48:27;4.80;;;4.05;;
49223;SDS011;35050;51.316;5.994;2022-12-07T01:51:04;6.95;;;4.47;;
49223;SDS011;35050;51.316;5.994;2022-12-07T01:53:36;5.60;;;4.53;;
49223;SDS011;35050;51.316;5.994;2022-12-07T01:56:05;4.95;;;4.03;;
49223;SDS011;35050;51.316;5.994;2022-12-07T01:58:33;6.85;;;4.70;;
49223;SDS011;35050;51.316;5.994;2022-12-07T02:00:59;6.53;;;4.80;;
49223;SDS011;35050;51.316;5.994;2022-12-07T02:03:27;5.95;;;4.72;;
49223;SDS011;35050;51.316;5.994;2022-12-07T02:05:57;8.65;;;5.13;;
49223;SDS011;35050;51.316;5.994;2022-12-07T02:08:25;5.65;;;4.93;;
49223;SDS011;35050;51.316;5.994;2022-12-07T02:10:51;6.15;;;4.55;;
49223;SDS011;35050;51.316;5.994;2022-12-07T02:13:21;7.57;;;5.32;;
49223;SDS011;35050;51.316;5.994;2022-12-07T02:24:15;4.85;;;4.35;;
49223;SDS011;35050;51.316;5.994;2022-12-07T02:29:36;5.60;;;4.60;;
49223;SDS011;35050;51.316;5.994;2022-12-07T02:32:21;5.93;;;4.82;;
49223;SDS011;35050;51.316;5.994;2022-12-07T02:35:03;6.22;;;5.10;;
49223;SDS011;35050;51.316;5.994;2022-12-07T02:40:09;6.03;;;5.00;;
49223;SDS011;35050;51.316;5.994;2022-12-07T02:42:43;6.88;;;4.80;;
49223;SDS011;35050;51.316;5.994;2022-12-07T02:45:13;5.97;;;4.65;;
49223;SDS011;35050;51.316;5.994;2022-12-07T02:47:42;4.50;;;4.10;;
49223;SDS011;35050;51.316;5.994;2022-12-07T02:50:09;6.20;;;5.03;;
49223;SDS011;35050;51.316;5.994;2022-12-07T02:52:36;6.03;;;4.65;;
49223;SDS011;35050;51.316;5.994;2022-12-07T02:55:01;4.43;;;4.03;;
49223;SDS011;35050;51.316;5.994;2022-12-07T02:57:35;5.93;;;4.30;;
49223;SDS011;35050;51.316;5.994;2022-12-07T03:00:13;5.10;;;3.90;;
49223;SDS011;35050;51.316;5.994;2022-12-07T03:11:06;6.10;;;4.60;;
49223;SDS011;35050;51.316;5.994;2022-12-07T03:16:26;6.88;;;5.10;;
49223;SDS011;35050;51.316;5.994;2022-12-07T03:19:07;6.00;;;4.97;;
49223;SDS011;35050;51.316;5.994;2022-12-07T03:21:43;5.30;;;4.25;;
49223;SDS011;35050;51.316;5.994;2022-12-07T03:24:15;4.85;;;4.35;;
49223;SDS011;35050;51.316;5.994;2022-12-07T03:26:47;7.70;;;4.90;;
49223;SDS011;35050;51.316;5.994;2022-12-07T03:29:22;7.63;;;4.90;;
49223;SDS011;35050;51.316;5.994;2022-12-07T03:31:55;5.55;;;4.68;;
49223;SDS011;35050;51.316;5.994;2022-12-07T03:34:31;7.13;;;4.57;;
49223;SDS011;35050;51.316;5.994;2022-12-07T03:37:08;7.85;;;4.50;;
49223;SDS011;35050;51.316;5.994;2022-12-07T03:40:13;6.22;;;4.78;;
49223;SDS011;35050;51.316;5.994;2022-12-07T03:42:40;8.73;;;5.00;;
49223;SDS011;35050;51.316;5.994;2022-12-07T03:45:06;6.25;;;4.53;;
49223;SDS011;35050;51.316;5.994;2022-12-07T03:47:34;5.50;;;4.53;;
49223;SDS011;35050;51.316;5.994;2022-12-07T03:50:50;4.75;;;4.25;;
49223;SDS011;35050;51.316;5.994;2022-12-07T03:53:14;6.07;;;3.55;;
49223;SDS011;35050;51.316;5.994;2022-12-07T03:55:47;6.18;;;4.10;;
49223;SDS011;35050;51.316;5.994;2022-12-07T03:58:15;3.85;;;3.45;;
49223;SDS011;35050;51.316;5.994;2022-12-07T04:00:44;3.90;;;3.40;;
49223;SDS011;35050;51.316;5.994;2022-12-07T04:03:10;3.78;;;2.85;;
49223;SDS011;35050;51.316;5.994;2022-12-07T04:05:36;4.43;;;3.78;;
49223;SDS011;35050;51.316;5.994;2022-12-07T04:08:03;3.90;;;3.28;;
49223;SDS011;35050;51.316;5.994;2022-12-07T04:10:29;3.33;;;3.03;;
49223;SDS011;35050;51.316;5.994;2022-12-07T04:12:55;5.93;;;3.20;;
49223;SDS011;35050;51.316;5.994;2022-12-07T04:15:21;4.10;;;3.03;;
49223;SDS011;35050;51.316;5.994;2022-12-07T04:17:47;3.80;;;3.10;;
49223;SDS011;35050;51.316;5.994;2022-12-07T04:20:12;3.17;;;2.72;;
49223;SDS011;35050;51.316;5.994;2022-12-07T04:22:38;3.47;;;2.88;;
49223;SDS011;35050;51.316;5.994;2022-12-07T04:25:04;3.72;;;3.30;;
49223;SDS011;35050;51.316;5.994;2022-12-07T04:27:30;4.22;;;2.90;;
49223;SDS011;35050;51.316;5.994;2022-12-07T04:29:56;2.85;;;2.58;;
49223;SDS011;35050;51.316;5.994;2022-12-07T04:32:22;4.13;;;3.38;;
49223;SDS011;35050;51.316;5.994;2022-12-07T04:34:48;3.78;;;2.85;;
49223;SDS011;35050;51.316;5.994;2022-12-07T04:37:14;3.72;;;3.25;;
49223;SDS011;35050;51.316;5.994;2022-12-07T04:39:39;4.50;;;3.13;;
49223;SDS011;35050;51.316;5.994;2022-12-07T04:42:05;4.63;;;3.50;;
49223;SDS011;35050;51.316;5.994;2022-12-07T04:44:31;4.97;;;3.58;;
49223;SDS011;35050;51.316;5.994;2022-12-07T04:46:57;4.82;;;3.05;;
49223;SDS011;35050;51.316;5.994;2022-12-07T04:49:23;6.70;;;3.08;;
49223;SDS011;35050;51.316;5.994;2022-12-07T04:51:49;5.70;;;3.10;;
49223;SDS011;35050;51.316;5.994;2022-12-07T04:54:15;3.30;;;2.88;;
49223;SDS011;35050;51.316;5.994;2022-12-07T04:56:41;2.90;;;2.60;;
49223;SDS011;35050;51.316;5.994;2022-12-07T04:59:07;5.00;;;3.08;;
49223;SDS011;35050;51.316;5.994;2022-12-07T05:01:34;3.70;;;2.60;;
49223;SDS011;35050;51.316;5.994;2022-12-07T05:04:00;2.83;;;2.20;;
49223;SDS011;35050;51.316;5.994;2022-12-07T05:06:25;4.00;;;2.55;;
49223;SDS011;35050;51.316;5.994;2022-12-07T05:08:51;4.35;;;2.38;;
49223;SDS011;35050;51.316;5.994;2022-12-07T05:11:17;4.25;;;3.03;;
49223;SDS011;35050;51.316;5.994;2022-12-07T05:14:02;4.35;;;2.67;;
49223;SDS011;35050;51.316;5.994;2022-12-07T05:16:29;3.42;;;2.30;;
49223;SDS011;35050;51.316;5.994;2022-12-07T05:18:55;3.88;;;2.72;;
49223;SDS011;35050;51.316;5.994;2022-12-07T05:21:21;3.15;;;2.70;;
49223;SDS011;35050;51.316;5.994;2022-12-07T05:23:46;4.28;;;2.55;;
49223;SDS011;35050;51.316;5.994;2022-12-07T05:26:12;3.08;;;2.45;;
49223;SDS011;35050;51.316;5.994;2022-12-07T05:28:38;3.03;;;2.28;;
49223;SDS011;35050;51.316;5.994;2022-12-07T05:31:03;6.00;;;3.10;;
49223;SDS011;35050;51.316;5.994;2022-12-07T05:33:29;3.88;;;2.50;;
49223;SDS011;35050;51.316;5.994;2022-12-07T05:35:55;6.20;;;3.00;;
49223;SDS011;35050;51.316;5.994;2022-12-07T05:38:20;4.35;;;2.90;;
49223;SDS011;35050;51.316;5.994;2022-12-07T05:40:46;3.45;;;2.80;;
49223;SDS011;35050;51.316;5.994;2022-12-07T05:43:12;3.95;;;2.80;;
49223;SDS011;35050;51.316;5.994;2022-12-07T05:45:37;2.67;;;2.30;;
49223;SDS011;35050;51.316;5.994;2022-12-07T05:48:03;3.20;;;2.25;;
49223;SDS011;35050;51.316;5.994;2022-12-07T05:50:29;3.30;;;2.40;;
49223;SDS011;35050;51.316;5.994;2022-12-07T05:52:54;6.63;;;2.50;;
49223;SDS011;35050;51.316;5.994;2022-12-07T05:55:20;3.63;;;2.28;;
49223;SDS011;35050;51.316;5.994;2022-12-07T05:57:45;2.95;;;2.22;;
49223;SDS011;35050;51.316;5.994;2022-12-07T06:00:30;4.38;;;2.40;;
49223;SDS011;35050;51.316;5.994;2022-12-07T06:02:56;3.38;;;2.05;;
49223;SDS011;35050;51.316;5.994;2022-12-07T06:05:21;3.13;;;2.50;;
49223;SDS011;35050;51.316;5.994;2022-12-07T06:07:47;2.88;;;2.22;;
49223;SDS011;35050;51.316;5.994;2022-12-07T06:10:13;2.15;;;1.92;;
49223;SDS011;35050;51.316;5.994;2022-12-07T06:12:38;2.83;;;2.05;;
49223;SDS011;35050;51.316;5.994;2022-12-07T06:15:07;3.13;;;2.08;;
49223;SDS011;35050;51.316;5.994;2022-12-07T06:17:33;2.28;;;2.00;;
49223;SDS011;35050;51.316;5.994;2022-12-07T06:19:59;2.88;;;2.00;;
49223;SDS011;35050;51.316;5.994;2022-12-07T06:22:25;3.00;;;2.05;;
49223;SDS011;35050;51.316;5.994;2022-12-07T06:24:50;3.92;;;1.85;;
49223;SDS011;35050;51.316;5.994;2022-12-07T06:27:16;3.80;;;2.00;;
49223;SDS011;35050;51.316;5.994;2022-12-07T06:29:42;3.40;;;1.85;;
49223;SDS011;35050;51.316;5.994;2022-12-07T06:32:08;2.85;;;1.90;;
49223;SDS011;35050;51.316;5.994;2022-12-07T06:34:34;2.53;;;1.88;;
49223;SDS011;35050;51.316;5.994;2022-12-07T06:36:59;5.28;;;2.15;;
49223;SDS011;35050;51.316;5.994;2022-12-07T06:39:26;2.58;;;1.90;;
49223;SDS011;35050;51.316;5.994;2022-12-07T06:41:52;2.33;;;1.70;;
49223;SDS011;35050;51.316;5.994;2022-12-07T06:44:19;1.73;;;1.55;;
49223;SDS011;35050;51.316;5.994;2022-12-07T06:46:45;2.55;;;1.70;;
49223;SDS011;35050;51.316;5.994;2022-12-07T06:49:11;3.20;;;1.75;;
49223;SDS011;35050;51.316;5.994;2022-12-07T06:51:38;2.88;;;2.10;;
49223;SDS011;35050;51.316;5.994;2022-12-07T06:54:12;3.60;;;2.40;;
49223;SDS011;35050;51.316;5.994;2022-12-07T06:56:39;1.88;;;1.55;;
49223;SDS011;35050;51.316;5.994;2022-12-07T06:59:05;3.97;;;2.20;;
49223;SDS011;35050;51.316;5.994;2022-12-07T07:01:32;2.65;;;2.30;;
49223;SDS011;35050;51.316;5.994;2022-12-07T07:04:00;2.08;;;1.83;;
49223;SDS011;35050;51.316;5.994;2022-12-07T07:06:26;2.30;;;2.00;;
49223;SDS011;35050;51.316;5.994;2022-12-07T07:08:52;1.70;;;1.60;;
49223;SDS011;35050;51.316;5.994;2022-12-07T07:11:18;3.00;;;2.10;;
49223;SDS011;35050;51.316;5.994;2022-12-07T07:13:44;4.07;;;2.03;;
49223;SDS011;35050;51.316;5.994;2022-12-07T07:16:10;3.38;;;1.98;;
49223;SDS011;35050;51.316;5.994;2022-12-07T07:18:36;3.08;;;1.83;;
49223;SDS011;35050;51.316;5.994;2022-12-07T07:21:02;3.88;;;2.00;;
49223;SDS011;35050;51.316;5.994;2022-12-07T07:23:28;2.20;;;1.60;;
49223;SDS011;35050;51.316;5.994;2022-12-07T07:25:54;2.47;;;1.77;;
49223;SDS011;35050;51.316;5.994;2022-12-07T07:28:20;3.50;;;1.92;;
49223;SDS011;35050;51.316;5.994;2022-12-07T07:30:45;4.57;;;1.70;;
49223;SDS011;35050;51.316;5.994;2022-12-07T07:33:11;3.05;;;1.92;;
49223;SDS011;35050;51.316;5.994;2022-12-07T07:35:38;4.75;;;2.05;;
49223;SDS011;35050;51.316;5.994;2022-12-07T07:38:04;3.97;;;2.20;;
49223;SDS011;35050;51.316;5.994;2022-12-07T07:40:30;4.40;;;2.28;;
49223;SDS011;35050;51.316;5.994;2022-12-07T07:42:56;3.97;;;1.80;;
49223;SDS011;35050;51.316;5.994;2022-12-07T07:45:22;2.28;;;1.77;;
49223;SDS011;35050;51.316;5.994;2022-12-07T07:47:49;2.78;;;1.80;;
49223;SDS011;35050;51.316;5.994;2022-12-07T07:50:16;4.50;;;2.00;;
49223;SDS011;35050;51.316;5.994;2022-12-07T07:52:42;4.90;;;1.95;;
49223;SDS011;35050;51.316;5.994;2022-12-07T07:55:08;2.70;;;1.60;;
49223;SDS011;35050;51.316;5.994;2022-12-07T07:57:35;2.30;;;1.95;;
49223;SDS011;35050;51.316;5.994;2022-12-07T08:00:02;3.63;;;1.92;;
49223;SDS011;35050;51.316;5.994;2022-12-07T08:02:33;3.45;;;2.03;;
49223;SDS011;35050;51.316;5.994;2022-12-07T08:04:59;2.03;;;1.65;;
49223;SDS011;35050;51.316;5.994;2022-12-07T08:07:24;2.90;;;1.83;;
49223;SDS011;35050;51.316;5.994;2022-12-07T08:09:51;3.60;;;1.90;;
49223;SDS011;35050;51.316;5.994;2022-12-07T08:12:17;4.43;;;2.00;;
49223;SDS011;35050;51.316;5.994;2022-12-07T08:14:43;1.98;;;1.70;;
49223;SDS011;35050;51.316;5.994;2022-12-07T08:17:08;1.83;;;1.67;;
49223;SDS011;35050;51.316;5.994;2022-12-07T08:19:34;1.90;;;1.70;;
49223;SDS011;35050;51.316;5.994;2022-12-07T08:21:59;2.58;;;1.40;;
49223;SDS011;35050;51.316;5.994;2022-12-07T08:24:25;3.97;;;2.08;;
49223;SDS011;35050;51.316;5.994;2022-12-07T08:26:51;3.42;;;2.03;;
49223;SDS011;35050;51.316;5.994;2022-12-07T08:29:17;4.68;;;1.65;;
49223;SDS011;35050;51.316;5.994;2022-12-07T08:31:43;3.45;;;1.73;;
49223;SDS011;35050;51.316;5.994;2022-12-07T08:34:12;3.00;;;1.75;;
49223;SDS011;35050;51.316;5.994;2022-12-07T08:36:38;2.83;;;1.77;;
49223;SDS011;35050;51.316;5.994;2022-12-07T08:39:04;3.88;;;1.80;;
49223;SDS011;35050;51.316;5.994;2022-12-07T08:41:30;3.72;;;2.15;;
49223;SDS011;35050;51.316;5.994;2022-12-07T08:43:57;2.42;;;1.98;;
49223;SDS011;35050;51.316;5.994;2022-12-07T08:49:20;3.97;;;2.17;;
49223;SDS011;35050;51.316;5.994;2022-12-07T08:54:17;4.10;;;2.30;;
49223;SDS011;35050;51.316;5.994;2022-12-07T08:56:44;4.97;;;2.80;;
49223;SDS011;35050;51.316;5.994;2022-12-07T08:59:12;4.72;;;2.83;;
49223;SDS011;35050;51.316;5.994;2022-12-07T09:01:42;3.60;;;2.70;;
49223;SDS011;35050;51.316;5.994;2022-12-07T09:04:07;4.35;;;3.00;;
49223;SDS011;35050;51.316;5.994;2022-12-07T09:06:33;4.90;;;2.55;;
49223;SDS011;35050;51.316;5.994;2022-12-07T09:08:59;3.40;;;2.30;;
49223;SDS011;35050;51.316;5.994;2022-12-07T09:11:26;3.28;;;2.00;;
49223;SDS011;35050;51.316;5.994;2022-12-07T09:13:52;5.40;;;2.83;;
49223;SDS011;35050;51.316;5.994;2022-12-07T09:16:18;5.38;;;3.03;;
49223;SDS011;35050;51.316;5.994;2022-12-07T09:18:43;4.07;;;2.88;;
49223;SDS011;35050;51.316;5.994;2022-12-07T09:21:09;5.65;;;2.95;;
49223;SDS011;35050;51.316;5.994;2022-12-07T09:23:35;5.65;;;3.17;;
49223;SDS011;35050;51.316;5.994;2022-12-07T09:26:01;6.72;;;3.42;;
49223;SDS011;35050;51.316;5.994;2022-12-07T09:28:28;3.85;;;2.53;;
49223;SDS011;35050;51.316;5.994;2022-12-07T09:30:54;3.35;;;2.70;;
49223;SDS011;35050;51.316;5.994;2022-12-07T09:33:20;3.38;;;2.08;;
49223;SDS011;35050;51.316;5.994;2022-12-07T09:35:46;3.25;;;2.50;;
49223;SDS011;35050;51.316;5.994;2022-12-07T09:38:13;5.10;;;2.70;;
49223;SDS011;35050;51.316;5.994;2022-12-07T09:40:40;4.50;;;2.72;;
49223;SDS011;35050;51.316;5.994;2022-12-07T09:43:21;3.45;;;2.80;;
49223;SDS011;35050;51.316;5.994;2022-12-07T09:45:51;5.82;;;3.30;;
49223;SDS011;35050;51.316;5.994;2022-12-07T09:48:35;7.05;;;3.72;;
49223;SDS011;35050;51.316;5.994;2022-12-07T09:51:10;5.25;;;3.40;;
49223;SDS011;35050;51.316;5.994;2022-12-07T09:53:41;8.10;;;4.18;;
49223;SDS011;35050;51.316;5.994;2022-12-07T09:56:08;6.80;;;3.58;;
49223;SDS011;35050;51.316;5.994;2022-12-07T09:58:38;4.78;;;3.28;;
49223;SDS011;35050;51.316;5.994;2022-12-07T10:03:32;4.78;;;2.90;;
49223;SDS011;35050;51.316;5.994;2022-12-07T10:05:59;5.88;;;3.22;;
49223;SDS011;35050;51.316;5.994;2022-12-07T10:08:25;5.82;;;3.00;;
49223;SDS011;35050;51.316;5.994;2022-12-07T10:10:52;4.97;;;3.15;;
49223;SDS011;35050;51.316;5.994;2022-12-07T10:13:32;6.53;;;3.45;;
49223;SDS011;35050;51.316;5.994;2022-12-07T10:16:00;6.63;;;3.20;;
49223;SDS011;35050;51.316;5.994;2022-12-07T10:23:34;7.35;;;2.83;;
49223;SDS011;35050;51.316;5.994;2022-12-07T10:28:52;10.90;;;5.65;;
49223;SDS011;35050;51.316;5.994;2022-12-07T10:31:19;10.05;;;5.22;;
49223;SDS011;35050;51.316;5.994;2022-12-07T10:41:54;6.18;;;3.28;;
49223;SDS011;35050;51.316;5.994;2022-12-07T10:44:22;5.70;;;3.13;;
49223;SDS011;35050;51.316;5.994;2022-12-07T11:00:23;5.22;;;2.42;;
49223;SDS011;35050;51.316;5.994;2022-12-07T11:03:09;4.57;;;2.67;;
49223;SDS011;35050;51.316;5.994;2022-12-07T11:05:52;5.38;;;2.70;;
49223;SDS011;35050;51.316;5.994;2022-12-07T11:08:32;4.88;;;3.15;;
49223;SDS011;35050;51.316;5.994;2022-12-07T11:16:30;5.38;;;2.30;;
49223;SDS011;35050;51.316;5.994;2022-12-07T11:19:34;2.83;;;2.08;;
49223;SDS011;35050;51.316;5.994;2022-12-07T11:23:10;5.22;;;2.47;;
49223;SDS011;35050;51.316;5.994;2022-12-07T11:25:35;5.78;;;2.85;;
49223;SDS011;35050;51.316;5.994;2022-12-07T11:31:24;4.38;;;2.47;;
49223;SDS011;35050;51.316;5.994;2022-12-07T11:34:00;4.57;;;2.50;;
49223;SDS011;35050;51.316;5.994;2022-12-07T11:36:45;3.17;;;2.13;;
49223;SDS011;35050;51.316;5.994;2022-12-07T11:41:47;5.47;;;2.70;;
49223;SDS011;35050;51.316;5.994;2022-12-07T11:47:07;5.32;;;3.63;;
49223;SDS011;35050;51.316;5.994;2022-12-07T11:49:43;7.05;;;3.50;;
49223;SDS011;35050;51.316;5.994;2022-12-07T11:52:16;5.70;;;3.00;;
49223;SDS011;35050;51.316;5.994;2022-12-07T11:54:55;5.07;;;2.92;;
49223;SDS011;35050;51.316;5.994;2022-12-07T11:57:32;6.63;;;3.08;;
49223;SDS011;35050;51.316;5.994;2022-12-07T12:00:05;4.75;;;3.20;;
49223;SDS011;35050;51.316;5.994;2022-12-07T12:05:29;5.25;;;2.35;;
49223;SDS011;35050;51.316;5.994;2022-12-07T12:08:00;5.07;;;2.65;;
49223;SDS011;35050;51.316;5.994;2022-12-07T12:10:53;5.20;;;2.80;;
49223;SDS011;35050;51.316;5.994;2022-12-07T12:19:00;5.55;;;2.50;;
49223;SDS011;35050;51.316;5.994;2022-12-07T12:21:47;6.43;;;2.10;;
49223;SDS011;35050;51.316;5.994;2022-12-07T12:24:19;5.15;;;2.15;;
49223;SDS011;35050;51.316;5.994;2022-12-07T12:27:02;3.90;;;1.80;;
49223;SDS011;35050;51.316;5.994;2022-12-07T12:29:38;2.45;;;1.50;;
49223;SDS011;35050;51.316;5.994;2022-12-07T12:37:40;5.85;;;1.90;;
49223;SDS011;35050;51.316;5.994;2022-12-07T12:42:45;6.30;;;1.80;;
49223;SDS011;35050;51.316;5.994;2022-12-07T12:47:53;7.15;;;1.98;;
49223;SDS011;35050;51.316;5.994;2022-12-07T12:50:32;6.38;;;3.25;;
49223;SDS011;35050;51.316;5.994;2022-12-07T12:58:41;3.05;;;1.77;;
49223;SDS011;35050;51.316;5.994;2022-12-07T13:03:56;5.40;;;1.90;;
49223;SDS011;35050;51.316;5.994;2022-12-07T13:08:51;4.63;;;2.20;;
49223;SDS011;35050;51.316;5.994;2022-12-07T13:11:20;4.15;;;1.85;;
49223;SDS011;35050;51.316;5.994;2022-12-07T13:14:35;4.65;;;1.63;;
49223;SDS011;35050;51.316;5.994;2022-12-07T13:16:59;4.35;;;1.90;;
49223;SDS011;35050;51.316;5.994;2022-12-07T13:24:56;5.68;;;2.10;;
49223;SDS011;35050;51.316;5.994;2022-12-07T13:27:24;5.75;;;2.30;;
49223;SDS011;35050;51.316;5.994;2022-12-07T13:29:51;3.88;;;1.50;;
49223;SDS011;35050;51.316;5.994;2022-12-07T13:32:27;6.95;;;2.15;;
49223;SDS011;35050;51.316;5.994;2022-12-07T13:34:55;3.72;;;1.30;;
49223;SDS011;35050;51.316;5.994;2022-12-07T13:42:26;5.35;;;1.73;;
49223;SDS011;35050;51.316;5.994;2022-12-07T13:44:53;3.40;;;1.40;;
49223;SDS011;35050;51.316;5.994;2022-12-07T13:49:52;2.65;;;1.48;;
49223;SDS011;35050;51.316;5.994;2022-12-07T13:57:27;2.92;;;1.13;;
49223;SDS011;35050;51.316;5.994;2022-12-07T13:59:55;4.18;;;1.77;;
49223;SDS011;35050;51.316;5.994;2022-12-07T14:02:24;2.47;;;1.15;;
49223;SDS011;35050;51.316;5.994;2022-12-07T14:05:14;2.47;;;1.35;;
49223;SDS011;35050;51.316;5.994;2022-12-07T14:07:49;3.90;;;1.40;;
49223;SDS011;35050;51.316;5.994;2022-12-07T14:12:51;1.65;;;1.17;;
49223;SDS011;35050;51.316;5.994;2022-12-07T14:15:25;3.90;;;1.65;;
49223;SDS011;35050;51.316;5.994;2022-12-07T14:17:54;2.53;;;1.52;;
49223;SDS011;35050;51.316;5.994;2022-12-07T14:20:30;2.35;;;1.30;;
49223;SDS011;35050;51.316;5.994;2022-12-07T14:23:05;4.63;;;2.17;;
49223;SDS011;35050;51.316;5.994;2022-12-07T14:28:28;3.50;;;1.60;;
49223;SDS011;35050;51.316;5.994;2022-12-07T14:30:56;7.20;;;1.85;;
49223;SDS011;35050;51.316;5.994;2022-12-07T14:33:22;4.10;;;1.38;;
49223;SDS011;35050;51.316;5.994;2022-12-07T14:35:49;2.92;;;1.67;;
49223;SDS011;35050;51.316;5.994;2022-12-07T14:38:15;3.05;;;1.63;;
49223;SDS011;35050;51.316;5.994;2022-12-07T14:40:43;2.17;;;1.30;;
49223;SDS011;35050;51.316;5.994;2022-12-07T14:43:10;4.10;;;1.23;;
49223;SDS011;35050;51.316;5.994;2022-12-07T14:45:37;4.55;;;1.13;;
49223;SDS011;35050;51.316;5.994;2022-12-07T14:48:04;1.75;;;0.95;;
49223;SDS011;35050;51.316;5.994;2022-12-07T14:50:30;3.10;;;1.52;;
49223;SDS011;35050;51.316;5.994;2022-12-07T14:53:02;2.42;;;1.20;;
49223;SDS011;35050;51.316;5.994;2022-12-07T14:55:35;3.33;;;1.50;;
49223;SDS011;35050;51.316;5.994;2022-12-07T14:58:01;2.00;;;1.30;;
49223;SDS011;35050;51.316;5.994;2022-12-07T15:00:27;3.20;;;1.40;;
49223;SDS011;35050;51.316;5.994;2022-12-07T15:02:54;5.38;;;1.80;;
49223;SDS011;35050;51.316;5.994;2022-12-07T15:05:20;3.00;;;1.40;;
49223;SDS011;35050;51.316;5.994;2022-12-07T15:07:46;2.50;;;1.73;;
49223;SDS011;35050;51.316;5.994;2022-12-07T15:10:23;4.32;;;2.10;;
49223;SDS011;35050;51.316;5.994;2022-12-07T15:12:54;5.75;;;1.80;;
49223;SDS011;35050;51.316;5.994;2022-12-07T15:15:40;3.60;;;1.60;;
49223;SDS011;35050;51.316;5.994;2022-12-07T15:18:06;3.75;;;1.70;;
49223;SDS011;35050;51.316;5.994;2022-12-07T15:20:32;3.42;;;1.83;;
49223;SDS011;35050;51.316;5.994;2022-12-07T15:22:57;3.67;;;1.70;;
49223;SDS011;35050;51.316;5.994;2022-12-07T15:25:23;3.45;;;1.60;;
49223;SDS011;35050;51.316;5.994;2022-12-07T15:27:49;4.82;;;1.65;;
49223;SDS011;35050;51.316;5.994;2022-12-07T15:30:15;3.53;;;1.63;;
49223;SDS011;35050;51.316;5.994;2022-12-07T15:32:40;2.30;;;1.23;;
49223;SDS011;35050;51.316;5.994;2022-12-07T15:35:06;3.00;;;1.25;;
49223;SDS011;35050;51.316;5.994;2022-12-07T15:37:32;1.92;;;1.13;;
49223;SDS011;35050;51.316;5.994;2022-12-07T15:39:58;2.78;;;1.38;;
49223;SDS011;35050;51.316;5.994;2022-12-07T15:42:23;2.47;;;1.60;;
49223;SDS011;35050;51.316;5.994;2022-12-07T15:44:49;1.67;;;1.17;;
49223;SDS011;35050;51.316;5.994;2022-12-07T15:47:31;3.40;;;1.90;;
49223;SDS011;35050;51.316;5.994;2022-12-07T15:49:58;1.65;;;1.45;;
49223;SDS011;35050;51.316;5.994;2022-12-07T15:52:24;3.83;;;1.88;;
49223;SDS011;35050;51.316;5.994;2022-12-07T15:54:49;3.88;;;1.63;;
49223;SDS011;35050;51.316;5.994;2022-12-07T15:57:15;1.92;;;1.50;;
49223;SDS011;35050;51.316;5.994;2022-12-07T15:59:41;1.58;;;1.48;;
49223;SDS011;35050;51.316;5.994;2022-12-07T16:02:07;1.90;;;1.50;;
49223;SDS011;35050;51.316;5.994;2022-12-07T16:04:35;1.92;;;1.30;;
49223;SDS011;35050;51.316;5.994;2022-12-07T16:07:01;3.05;;;1.77;;
49223;SDS011;35050;51.316;5.994;2022-12-07T16:09:26;4.10;;;1.40;;
49223;SDS011;35050;51.316;5.994;2022-12-07T16:11:52;3.55;;;1.90;;
49223;SDS011;35050;51.316;5.994;2022-12-07T16:14:18;3.67;;;1.90;;
49223;SDS011;35050;51.316;5.994;2022-12-07T16:16:44;2.25;;;1.30;;
49223;SDS011;35050;51.316;5.994;2022-12-07T16:19:10;3.92;;;1.45;;
49223;SDS011;35050;51.316;5.994;2022-12-07T16:21:36;2.97;;;1.90;;
49223;SDS011;35050;51.316;5.994;2022-12-07T16:24:01;3.10;;;1.60;;
49223;SDS011;35050;51.316;5.994;2022-12-07T16:26:28;3.55;;;1.80;;
49223;SDS011;35050;51.316;5.994;2022-12-07T16:28:54;3.85;;;1.77;;
49223;SDS011;35050;51.316;5.994;2022-12-07T16:31:24;3.78;;;1.80;;
49223;SDS011;35050;51.316;5.994;2022-12-07T16:33:55;3.10;;;2.05;;
49223;SDS011;35050;51.316;5.994;2022-12-07T16:36:22;4.82;;;1.88;;
49223;SDS011;35050;51.316;5.994;2022-12-07T16:38:49;2.33;;;1.67;;
49223;SDS011;35050;51.316;5.994;2022-12-07T16:41:15;3.42;;;2.13;;
49223;SDS011;35050;51.316;5.994;2022-12-07T16:43:41;2.28;;;1.80;;
49223;SDS011;35050;51.316;5.994;2022-12-07T16:46:06;4.15;;;1.88;;
49223;SDS011;35050;51.316;5.994;2022-12-07T16:48:35;4.78;;;2.00;;
49223;SDS011;35050;51.316;5.994;2022-12-07T16:51:07;3.47;;;2.17;;
49223;SDS011;35050;51.316;5.994;2022-12-07T16:53:34;3.03;;;2.10;;
49223;SDS011;35050;51.316;5.994;2022-12-07T16:56:01;2.65;;;1.80;;
49223;SDS011;35050;51.316;5.994;2022-12-07T16:58:27;3.35;;;2.10;;
49223;SDS011;35050;51.316;5.994;2022-12-07T17:00:53;4.72;;;1.92;;
49223;SDS011;35050;51.316;5.994;2022-12-07T17:03:19;2.22;;;1.50;;
49223;SDS011;35050;51.316;5.994;2022-12-07T17:05:45;3.72;;;1.90;;
49223;SDS011;35050;51.316;5.994;2022-12-07T17:08:11;2.30;;;1.75;;
49223;SDS011;35050;51.316;5.994;2022-12-07T17:10:39;3.45;;;1.67;;
49223;SDS011;35050;51.316;5.994;2022-12-07T17:13:06;2.03;;;1.63;;